Frisco, Illinois
Current Conditions -  °F | °C
As of 8:15 AM on Thursday 18 Dec 2014 (Local Time) from KMVN Reporting Station
Overcast Overcast  
Wind Chill: 28°   Ceiling: 1200
Heat Index: 28°   Visibility: 9mi
Dew Point: 19°   Wind: 3mph
Humidity: 69%   Direction: 40°NE
Pressure: 30.32"   Gusts: NA
Location:  38.075°N, 88.8028°W
Report Text: KMVN 181415Z AUTO 04003KT 9SM BKN012 OVC060 M02/M07 A3032 RMK AO1
Loading
Personal Weather Stations






























Interactive Weather Map New forecast layout! Learn more

10-Day Weather Forecast

Advertisements
Track Severe Weather on mobile